sensor_id;sensor_type;location;lat;lon;timestamp;P1;durP1;ratioP1;P2;durP2;ratioP2
11486;SDS011;10510;47.942;9.442;2023-03-01T00:00:22;29.23;;;12.40;;
11486;SDS011;10510;47.942;9.442;2023-03-01T00:02:22;24.73;;;11.60;;
11486;SDS011;10510;47.942;9.442;2023-03-01T00:04:22;24.50;;;11.20;;
11486;SDS011;10510;47.942;9.442;2023-03-01T00:06:23;26.58;;;12.13;;
11486;SDS011;10510;47.942;9.442;2023-03-01T00:08:24;27.17;;;12.88;;
11486;SDS011;10510;47.942;9.442;2023-03-01T00:10:25;27.08;;;12.40;;
11486;SDS011;10510;47.942;9.442;2023-03-01T00:12:26;26.77;;;11.88;;
11486;SDS011;10510;47.942;9.442;2023-03-01T00:14:27;27.30;;;12.35;;
11486;SDS011;10510;47.942;9.442;2023-03-01T00:16:29;26.00;;;12.30;;
11486;SDS011;10510;47.942;9.442;2023-03-01T00:18:31;21.58;;;11.13;;
11486;SDS011;10510;47.942;9.442;2023-03-01T00:20:32;28.25;;;13.05;;
11486;SDS011;10510;47.942;9.442;2023-03-01T00:22:32;27.20;;;12.90;;
11486;SDS011;10510;47.942;9.442;2023-03-01T00:24:32;27.67;;;12.55;;
11486;SDS011;10510;47.942;9.442;2023-03-01T00:26:32;30.08;;;12.70;;
11486;SDS011;10510;47.942;9.442;2023-03-01T00:28:33;30.17;;;13.13;;
11486;SDS011;10510;47.942;9.442;2023-03-01T00:30:33;27.45;;;11.55;;
11486;SDS011;10510;47.942;9.442;2023-03-01T00:32:33;28.70;;;13.15;;
11486;SDS011;10510;47.942;9.442;2023-03-01T00:34:34;25.48;;;11.98;;
11486;SDS011;10510;47.942;9.442;2023-03-01T00:36:35;25.98;;;12.45;;
11486;SDS011;10510;47.942;9.442;2023-03-01T00:38:37;28.23;;;12.60;;
11486;SDS011;10510;47.942;9.442;2023-03-01T00:40:39;27.83;;;12.35;;
11486;SDS011;10510;47.942;9.442;2023-03-01T00:42:39;22.33;;;11.40;;
11486;SDS011;10510;47.942;9.442;2023-03-01T00:44:39;26.48;;;12.23;;
11486;SDS011;10510;47.942;9.442;2023-03-01T00:46:40;32.63;;;13.23;;
11486;SDS011;10510;47.942;9.442;2023-03-01T00:48:40;28.52;;;13.27;;
11486;SDS011;10510;47.942;9.442;2023-03-01T00:50:41;28.92;;;13.32;;
11486;SDS011;10510;47.942;9.442;2023-03-01T00:52:41;29.55;;;13.15;;
11486;SDS011;10510;47.942;9.442;2023-03-01T00:54:41;35.00;;;14.20;;
11486;SDS011;10510;47.942;9.442;2023-03-01T00:56:42;31.20;;;12.82;;
11486;SDS011;10510;47.942;9.442;2023-03-01T00:58:42;28.33;;;12.55;;
11486;SDS011;10510;47.942;9.442;2023-03-01T01:00:42;33.17;;;12.98;;
11486;SDS011;10510;47.942;9.442;2023-03-01T01:02:42;28.77;;;13.27;;
11486;SDS011;10510;47.942;9.442;2023-03-01T01:04:43;29.15;;;12.38;;
11486;SDS011;10510;47.942;9.442;2023-03-01T01:06:44;28.85;;;13.73;;
11486;SDS011;10510;47.942;9.442;2023-03-01T01:08:46;26.40;;;13.00;;
11486;SDS011;10510;47.942;9.442;2023-03-01T01:10:47;27.52;;;12.77;;
11486;SDS011;10510;47.942;9.442;2023-03-01T01:12:47;32.95;;;13.13;;
11486;SDS011;10510;47.942;9.442;2023-03-01T01:14:47;28.55;;;13.80;;
11486;SDS011;10510;47.942;9.442;2023-03-01T01:16:48;29.90;;;12.90;;
11486;SDS011;10510;47.942;9.442;2023-03-01T01:18:48;26.63;;;12.52;;
11486;SDS011;10510;47.942;9.442;2023-03-01T01:20:49;28.23;;;12.85;;
11486;SDS011;10510;47.942;9.442;2023-03-01T01:22:49;28.55;;;13.07;;
11486;SDS011;10510;47.942;9.442;2023-03-01T01:24:51;32.72;;;13.52;;
11486;SDS011;10510;47.942;9.442;2023-03-01T01:26:51;34.35;;;13.70;;
11486;SDS011;10510;47.942;9.442;2023-03-01T01:28:51;28.58;;;13.27;;
11486;SDS011;10510;47.942;9.442;2023-03-01T01:30:52;24.92;;;10.63;;
11486;SDS011;10510;47.942;9.442;2023-03-01T01:32:52;30.45;;;14.98;;
11486;SDS011;10510;47.942;9.442;2023-03-01T01:34:53;30.23;;;13.65;;
11486;SDS011;10510;47.942;9.442;2023-03-01T01:36:53;29.63;;;13.05;;
11486;SDS011;10510;47.942;9.442;2023-03-01T01:38:54;27.88;;;12.00;;
11486;SDS011;10510;47.942;9.442;2023-03-01T01:40:54;31.88;;;12.82;;
11486;SDS011;10510;47.942;9.442;2023-03-01T01:42:55;31.85;;;13.75;;
11486;SDS011;10510;47.942;9.442;2023-03-01T01:47:32;28.13;;;12.73;;
11486;SDS011;10510;47.942;9.442;2023-03-01T01:49:35;31.48;;;13.60;;
11486;SDS011;10510;47.942;9.442;2023-03-01T01:51:37;32.13;;;13.88;;
11486;SDS011;10510;47.942;9.442;2023-03-01T01:53:40;28.65;;;13.40;;
11486;SDS011;10510;47.942;9.442;2023-03-01T01:55:45;27.90;;;12.73;;
11486;SDS011;10510;47.942;9.442;2023-03-01T01:57:50;27.50;;;13.13;;
11486;SDS011;10510;47.942;9.442;2023-03-01T01:59:54;28.80;;;13.27;;
11486;SDS011;10510;47.942;9.442;2023-03-01T02:01:57;29.83;;;14.90;;
11486;SDS011;10510;47.942;9.442;2023-03-01T02:04:00;27.88;;;12.18;;
11486;SDS011;10510;47.942;9.442;2023-03-01T02:06:04;28.98;;;12.38;;
11486;SDS011;10510;47.942;9.442;2023-03-01T02:08:12;28.05;;;12.90;;
11486;SDS011;10510;47.942;9.442;2023-03-01T02:10:15;31.48;;;14.63;;
11486;SDS011;10510;47.942;9.442;2023-03-01T02:12:16;24.10;;;11.68;;
11486;SDS011;10510;47.942;9.442;2023-03-01T02:14:19;28.23;;;12.48;;
11486;SDS011;10510;47.942;9.442;2023-03-01T02:16:19;26.25;;;12.75;;
11486;SDS011;10510;47.942;9.442;2023-03-01T02:18:21;29.15;;;13.88;;
11486;SDS011;10510;47.942;9.442;2023-03-01T02:20:27;31.40;;;12.75;;
11486;SDS011;10510;47.942;9.442;2023-03-01T02:22:31;25.67;;;12.60;;
11486;SDS011;10510;47.942;9.442;2023-03-01T02:27:01;31.20;;;14.43;;
11486;SDS011;10510;47.942;9.442;2023-03-01T02:29:02;27.55;;;13.25;;
11486;SDS011;10510;47.942;9.442;2023-03-01T02:31:06;27.80;;;12.82;;
11486;SDS011;10510;47.942;9.442;2023-03-01T02:33:27;28.42;;;13.30;;
11486;SDS011;10510;47.942;9.442;2023-03-01T02:35:37;30.42;;;12.70;;
11486;SDS011;10510;47.942;9.442;2023-03-01T02:37:38;25.35;;;13.00;;
11486;SDS011;10510;47.942;9.442;2023-03-01T02:39:44;29.17;;;12.90;;
11486;SDS011;10510;47.942;9.442;2023-03-01T02:41:49;28.50;;;13.32;;
11486;SDS011;10510;47.942;9.442;2023-03-01T02:43:52;29.27;;;12.50;;
11486;SDS011;10510;47.942;9.442;2023-03-01T02:45:53;31.42;;;13.30;;
11486;SDS011;10510;47.942;9.442;2023-03-01T02:47:58;31.52;;;13.05;;
11486;SDS011;10510;47.942;9.442;2023-03-01T02:49:58;28.65;;;12.35;;
11486;SDS011;10510;47.942;9.442;2023-03-01T02:54:26;28.42;;;13.27;;
11486;SDS011;10510;47.942;9.442;2023-03-01T02:58:31;31.45;;;13.00;;
11486;SDS011;10510;47.942;9.442;2023-03-01T03:00:36;31.45;;;13.60;;
11486;SDS011;10510;47.942;9.442;2023-03-01T03:02:40;33.05;;;14.32;;
11486;SDS011;10510;47.942;9.442;2023-03-01T03:04:40;27.48;;;13.18;;
11486;SDS011;10510;47.942;9.442;2023-03-01T03:06:40;28.25;;;12.60;;
11486;SDS011;10510;47.942;9.442;2023-03-01T03:08:41;29.88;;;13.23;;
11486;SDS011;10510;47.942;9.442;2023-03-01T03:10:41;29.15;;;13.48;;
11486;SDS011;10510;47.942;9.442;2023-03-01T03:12:43;41.75;;;16.27;;
11486;SDS011;10510;47.942;9.442;2023-03-01T03:14:43;28.52;;;13.00;;
11486;SDS011;10510;47.942;9.442;2023-03-01T03:16:45;31.23;;;14.98;;
11486;SDS011;10510;47.942;9.442;2023-03-01T03:18:47;27.58;;;13.95;;
11486;SDS011;10510;47.942;9.442;2023-03-01T03:20:48;38.67;;;14.27;;
11486;SDS011;10510;47.942;9.442;2023-03-01T03:22:53;28.77;;;14.85;;
11486;SDS011;10510;47.942;9.442;2023-03-01T03:24:55;30.27;;;14.00;;
11486;SDS011;10510;47.942;9.442;2023-03-01T03:26:55;27.88;;;13.73;;
11486;SDS011;10510;47.942;9.442;2023-03-01T03:28:55;33.95;;;14.15;;
11486;SDS011;10510;47.942;9.442;2023-03-01T03:30:56;29.30;;;14.30;;
11486;SDS011;10510;47.942;9.442;2023-03-01T03:32:58;31.77;;;14.75;;
11486;SDS011;10510;47.942;9.442;2023-03-01T03:34:59;37.03;;;14.57;;
11486;SDS011;10510;47.942;9.442;2023-03-01T03:36:59;30.75;;;14.57;;
11486;SDS011;10510;47.942;9.442;2023-03-01T03:38:59;31.85;;;15.02;;
11486;SDS011;10510;47.942;9.442;2023-03-01T03:41:01;31.13;;;13.93;;
11486;SDS011;10510;47.942;9.442;2023-03-01T03:43:04;31.25;;;14.82;;
11486;SDS011;10510;47.942;9.442;2023-03-01T03:45:23;37.40;;;15.05;;
11486;SDS011;10510;47.942;9.442;2023-03-01T03:47:23;30.38;;;13.68;;
11486;SDS011;10510;47.942;9.442;2023-03-01T03:49:23;38.13;;;16.23;;
11486;SDS011;10510;47.942;9.442;2023-03-01T03:51:24;36.25;;;14.90;;
11486;SDS011;10510;47.942;9.442;2023-03-01T03:53:25;32.08;;;13.43;;
11486;SDS011;10510;47.942;9.442;2023-03-01T03:55:26;34.05;;;15.85;;
11486;SDS011;10510;47.942;9.442;2023-03-01T03:57:30;35.45;;;15.52;;
11486;SDS011;10510;47.942;9.442;2023-03-01T03:59:30;29.90;;;14.13;;
11486;SDS011;10510;47.942;9.442;2023-03-01T04:01:30;31.35;;;14.18;;
11486;SDS011;10510;47.942;9.442;2023-03-01T04:03:31;34.58;;;15.25;;
11486;SDS011;10510;47.942;9.442;2023-03-01T04:05:32;33.83;;;16.10;;
11486;SDS011;10510;47.942;9.442;2023-03-01T04:07:34;31.75;;;15.02;;
11486;SDS011;10510;47.942;9.442;2023-03-01T04:09:35;34.20;;;15.10;;
11486;SDS011;10510;47.942;9.442;2023-03-01T04:11:35;37.08;;;15.35;;
11486;SDS011;10510;47.942;9.442;2023-03-01T04:13:35;34.90;;;15.98;;
11486;SDS011;10510;47.942;9.442;2023-03-01T04:15:36;35.05;;;15.70;;
11486;SDS011;10510;47.942;9.442;2023-03-01T04:17:36;34.40;;;14.57;;
11486;SDS011;10510;47.942;9.442;2023-03-01T04:19:36;39.15;;;14.75;;
11486;SDS011;10510;47.942;9.442;2023-03-01T04:21:37;34.03;;;14.32;;
11486;SDS011;10510;47.942;9.442;2023-03-01T04:23:37;36.08;;;14.70;;
11486;SDS011;10510;47.942;9.442;2023-03-01T04:25:39;31.67;;;14.05;;
11486;SDS011;10510;47.942;9.442;2023-03-01T04:27:41;35.20;;;16.17;;
11486;SDS011;10510;47.942;9.442;2023-03-01T04:29:41;31.25;;;14.52;;
11486;SDS011;10510;47.942;9.442;2023-03-01T04:31:42;31.67;;;14.43;;
11486;SDS011;10510;47.942;9.442;2023-03-01T04:33:43;36.03;;;16.50;;
11486;SDS011;10510;47.942;9.442;2023-03-01T04:35:46;36.00;;;14.65;;
11486;SDS011;10510;47.942;9.442;2023-03-01T04:37:49;35.10;;;16.38;;
11486;SDS011;10510;47.942;9.442;2023-03-01T04:39:49;34.33;;;16.08;;
11486;SDS011;10510;47.942;9.442;2023-03-01T04:41:49;36.20;;;15.00;;
11486;SDS011;10510;47.942;9.442;2023-03-01T04:43:50;45.95;;;16.90;;
11486;SDS011;10510;47.942;9.442;2023-03-01T04:45:50;35.83;;;14.73;;
11486;SDS011;10510;47.942;9.442;2023-03-01T04:47:50;33.30;;;15.27;;
11486;SDS011;10510;47.942;9.442;2023-03-01T04:49:53;33.25;;;14.52;;
11486;SDS011;10510;47.942;9.442;2023-03-01T04:51:54;30.48;;;13.05;;
11486;SDS011;10510;47.942;9.442;2023-03-01T04:53:54;31.35;;;14.70;;
11486;SDS011;10510;47.942;9.442;2023-03-01T04:55:55;32.10;;;14.85;;
11486;SDS011;10510;47.942;9.442;2023-03-01T04:57:55;32.90;;;15.23;;
11486;SDS011;10510;47.942;9.442;2023-03-01T04:59:56;30.95;;;14.60;;
11486;SDS011;10510;47.942;9.442;2023-03-01T05:01:56;34.80;;;14.57;;
11486;SDS011;10510;47.942;9.442;2023-03-01T05:03:57;37.50;;;16.40;;
11486;SDS011;10510;47.942;9.442;2023-03-01T05:06:02;34.40;;;14.77;;
11486;SDS011;10510;47.942;9.442;2023-03-01T05:08:04;32.85;;;14.40;;
11486;SDS011;10510;47.942;9.442;2023-03-01T05:10:08;35.97;;;15.77;;
11486;SDS011;10510;47.942;9.442;2023-03-01T05:12:08;32.60;;;14.63;;
11486;SDS011;10510;47.942;9.442;2023-03-01T05:14:09;33.60;;;14.77;;
11486;SDS011;10510;47.942;9.442;2023-03-01T05:16:10;39.53;;;17.02;;
11486;SDS011;10510;47.942;9.442;2023-03-01T05:18:13;54.47;;;18.63;;
11486;SDS011;10510;47.942;9.442;2023-03-01T05:20:14;36.75;;;17.42;;
11486;SDS011;10510;47.942;9.442;2023-03-01T05:22:14;38.92;;;17.77;;
11486;SDS011;10510;47.942;9.442;2023-03-01T05:24:14;39.75;;;16.67;;
11486;SDS011;10510;47.942;9.442;2023-03-01T05:26:15;40.08;;;16.65;;
11486;SDS011;10510;47.942;9.442;2023-03-01T05:28:18;55.20;;;21.05;;
11486;SDS011;10510;47.942;9.442;2023-03-01T05:30:19;39.80;;;16.63;;
11486;SDS011;10510;47.942;9.442;2023-03-01T05:32:20;42.17;;;18.65;;
11486;SDS011;10510;47.942;9.442;2023-03-01T05:34:26;33.08;;;16.15;;
11486;SDS011;10510;47.942;9.442;2023-03-01T05:36:31;31.42;;;15.23;;
11486;SDS011;10510;47.942;9.442;2023-03-01T05:38:32;40.28;;;16.45;;
11486;SDS011;10510;47.942;9.442;2023-03-01T05:40:33;33.58;;;16.40;;
11486;SDS011;10510;47.942;9.442;2023-03-01T05:42:34;51.50;;;23.00;;
11486;SDS011;10510;47.942;9.442;2023-03-01T05:44:34;32.50;;;15.63;;
11486;SDS011;10510;47.942;9.442;2023-03-01T05:46:34;34.53;;;16.05;;
11486;SDS011;10510;47.942;9.442;2023-03-01T05:48:35;34.80;;;14.43;;
11486;SDS011;10510;47.942;9.442;2023-03-01T05:50:36;36.88;;;16.60;;
11486;SDS011;10510;47.942;9.442;2023-03-01T05:52:39;32.90;;;15.90;;
11486;SDS011;10510;47.942;9.442;2023-03-01T05:54:39;34.25;;;15.10;;
11486;SDS011;10510;47.942;9.442;2023-03-01T05:56:39;33.88;;;15.93;;
11486;SDS011;10510;47.942;9.442;2023-03-01T05:58:40;35.53;;;15.38;;
11486;SDS011;10510;47.942;9.442;2023-03-01T06:00:40;35.60;;;16.63;;
11486;SDS011;10510;47.942;9.442;2023-03-01T06:02:42;35.17;;;15.77;;
11486;SDS011;10510;47.942;9.442;2023-03-01T06:04:42;33.35;;;16.10;;
11486;SDS011;10510;47.942;9.442;2023-03-01T06:06:42;36.30;;;15.65;;
11486;SDS011;10510;47.942;9.442;2023-03-01T06:08:42;34.17;;;14.90;;
11486;SDS011;10510;47.942;9.442;2023-03-01T06:10:43;33.97;;;14.65;;
11486;SDS011;10510;47.942;9.442;2023-03-01T06:12:43;35.38;;;15.00;;
11486;SDS011;10510;47.942;9.442;2023-03-01T06:14:45;34.72;;;16.55;;
11486;SDS011;10510;47.942;9.442;2023-03-01T06:16:47;41.92;;;17.38;;
11486;SDS011;10510;47.942;9.442;2023-03-01T06:18:47;43.38;;;18.50;;
11486;SDS011;10510;47.942;9.442;2023-03-01T06:20:54;40.70;;;16.10;;
11486;SDS011;10510;47.942;9.442;2023-03-01T06:22:55;38.45;;;16.38;;
11486;SDS011;10510;47.942;9.442;2023-03-01T06:24:56;36.50;;;15.88;;
11486;SDS011;10510;47.942;9.442;2023-03-01T06:26:56;39.03;;;16.73;;
11486;SDS011;10510;47.942;9.442;2023-03-01T06:28:56;35.70;;;15.88;;
11486;SDS011;10510;47.942;9.442;2023-03-01T06:30:57;30.48;;;14.75;;
11486;SDS011;10510;47.942;9.442;2023-03-01T06:32:57;32.75;;;14.75;;
11486;SDS011;10510;47.942;9.442;2023-03-01T06:35:00;36.65;;;16.98;;
11486;SDS011;10510;47.942;9.442;2023-03-01T06:37:00;33.97;;;14.77;;
11486;SDS011;10510;47.942;9.442;2023-03-01T06:39:05;40.20;;;16.73;;
11486;SDS011;10510;47.942;9.442;2023-03-01T06:41:05;43.53;;;19.00;;
11486;SDS011;10510;47.942;9.442;2023-03-01T06:43:06;36.33;;;15.93;;
11486;SDS011;10510;47.942;9.442;2023-03-01T06:45:08;33.67;;;16.08;;
11486;SDS011;10510;47.942;9.442;2023-03-01T06:47:09;34.50;;;16.17;;
11486;SDS011;10510;47.942;9.442;2023-03-01T06:49:09;36.78;;;16.50;;
11486;SDS011;10510;47.942;9.442;2023-03-01T06:51:10;32.70;;;15.75;;
11486;SDS011;10510;47.942;9.442;2023-03-01T06:53:10;35.13;;;14.80;;
11486;SDS011;10510;47.942;9.442;2023-03-01T06:55:11;32.63;;;15.32;;
11486;SDS011;10510;47.942;9.442;2023-03-01T06:57:12;31.90;;;15.07;;
11486;SDS011;10510;47.942;9.442;2023-03-01T06:59:13;38.03;;;16.33;;
11486;SDS011;10510;47.942;9.442;2023-03-01T07:01:13;39.92;;;16.30;;
11486;SDS011;10510;47.942;9.442;2023-03-01T07:03:13;33.13;;;16.10;;
11486;SDS011;10510;47.942;9.442;2023-03-01T07:05:14;40.45;;;16.10;;
11486;SDS011;10510;47.942;9.442;2023-03-01T07:07:14;36.22;;;15.45;;
11486;SDS011;10510;47.942;9.442;2023-03-01T07:09:14;39.40;;;16.67;;
11486;SDS011;10510;47.942;9.442;2023-03-01T07:11:19;37.13;;;16.35;;
11486;SDS011;10510;47.942;9.442;2023-03-01T07:13:19;37.20;;;16.02;;
11486;SDS011;10510;47.942;9.442;2023-03-01T07:15:20;31.35;;;14.05;;
11486;SDS011;10510;47.942;9.442;2023-03-01T07:17:20;35.22;;;15.18;;
11486;SDS011;10510;47.942;9.442;2023-03-01T07:19:20;33.83;;;15.52;;
11486;SDS011;10510;47.942;9.442;2023-03-01T07:21:22;36.25;;;15.18;;
11486;SDS011;10510;47.942;9.442;2023-03-01T07:23:22;35.08;;;15.05;;
11486;SDS011;10510;47.942;9.442;2023-03-01T07:25:22;34.33;;;14.85;;
11486;SDS011;10510;47.942;9.442;2023-03-01T07:27:22;33.38;;;16.35;;
11486;SDS011;10510;47.942;9.442;2023-03-01T07:29:23;45.15;;;17.77;;
11486;SDS011;10510;47.942;9.442;2023-03-01T07:31:23;39.25;;;16.30;;
11486;SDS011;10510;47.942;9.442;2023-03-01T07:33:23;42.90;;;18.45;;
11486;SDS011;10510;47.942;9.442;2023-03-01T07:35:25;29.83;;;13.90;;
11486;SDS011;10510;47.942;9.442;2023-03-01T07:37:26;31.17;;;14.65;;
11486;SDS011;10510;47.942;9.442;2023-03-01T07:39:26;32.55;;;15.32;;
11486;SDS011;10510;47.942;9.442;2023-03-01T07:41:27;35.92;;;17.45;;
11486;SDS011;10510;47.942;9.442;2023-03-01T07:43:28;40.97;;;16.63;;
11486;SDS011;10510;47.942;9.442;2023-03-01T07:45:29;35.40;;;15.73;;
11486;SDS011;10510;47.942;9.442;2023-03-01T07:47:29;31.75;;;14.23;;
11486;SDS011;10510;47.942;9.442;2023-03-01T07:49:30;41.55;;;15.27;;
11486;SDS011;10510;47.942;9.442;2023-03-01T07:51:30;33.22;;;15.20;;
11486;SDS011;10510;47.942;9.442;2023-03-01T07:53:30;33.75;;;14.55;;
11486;SDS011;10510;47.942;9.442;2023-03-01T07:55:31;37.78;;;15.98;;
11486;SDS011;10510;47.942;9.442;2023-03-01T07:57:31;36.63;;;15.10;;
11486;SDS011;10510;47.942;9.442;2023-03-01T07:59:32;34.83;;;15.32;;
11486;SDS011;10510;47.942;9.442;2023-03-01T08:01:32;35.47;;;17.08;;
11486;SDS011;10510;47.942;9.442;2023-03-01T08:03:33;35.03;;;16.48;;
11486;SDS011;10510;47.942;9.442;2023-03-01T08:05:34;44.45;;;16.85;;
11486;SDS011;10510;47.942;9.442;2023-03-01T08:07:34;37.00;;;16.10;;
11486;SDS011;10510;47.942;9.442;2023-03-01T08:09:35;42.35;;;16.02;;
11486;SDS011;10510;47.942;9.442;2023-03-01T08:11:37;34.13;;;14.13;;
11486;SDS011;10510;47.942;9.442;2023-03-01T08:13:37;34.83;;;15.27;;
11486;SDS011;10510;47.942;9.442;2023-03-01T08:15:37;32.05;;;14.52;;
11486;SDS011;10510;47.942;9.442;2023-03-01T08:17:38;35.60;;;15.55;;
11486;SDS011;10510;47.942;9.442;2023-03-01T08:19:38;34.33;;;15.57;;
11486;SDS011;10510;47.942;9.442;2023-03-01T08:21:39;33.72;;;14.50;;
11486;SDS011;10510;47.942;9.442;2023-03-01T08:23:39;33.90;;;14.98;;
11486;SDS011;10510;47.942;9.442;2023-03-01T08:25:40;36.67;;;16.05;;
11486;SDS011;10510;47.942;9.442;2023-03-01T08:27:40;44.97;;;15.63;;
11486;SDS011;10510;47.942;9.442;2023-03-01T08:29:40;34.55;;;15.93;;
11486;SDS011;10510;47.942;9.442;2023-03-01T08:31:41;36.88;;;15.50;;
11486;SDS011;10510;47.942;9.442;2023-03-01T08:33:41;35.47;;;15.43;;
11486;SDS011;10510;47.942;9.442;2023-03-01T08:35:42;52.45;;;15.93;;
11486;SDS011;10510;47.942;9.442;2023-03-01T08:37:42;36.63;;;15.98;;
11486;SDS011;10510;47.942;9.442;2023-03-01T08:39:42;54.17;;;17.15;;
11486;SDS011;10510;47.942;9.442;2023-03-01T08:41:43;42.92;;;16.45;;
11486;SDS011;10510;47.942;9.442;2023-03-01T08:43:43;35.20;;;14.75;;
11486;SDS011;10510;47.942;9.442;2023-03-01T08:45:44;36.30;;;16.13;;
11486;SDS011;10510;47.942;9.442;2023-03-01T08:47:44;37.53;;;16.52;;
11486;SDS011;10510;47.942;9.442;2023-03-01T08:49:45;35.15;;;15.13;;
11486;SDS011;10510;47.942;9.442;2023-03-01T08:51:45;28.95;;;14.48;;
11486;SDS011;10510;47.942;9.442;2023-03-01T08:53:47;51.83;;;20.95;;
11486;SDS011;10510;47.942;9.442;2023-03-01T08:55:48;33.28;;;18.35;;
11486;SDS011;10510;47.942;9.442;2023-03-01T08:57:48;39.03;;;18.08;;
11486;SDS011;10510;47.942;9.442;2023-03-01T08:59:48;47.88;;;19.42;;
11486;SDS011;10510;47.942;9.442;2023-03-01T09:01:48;50.00;;;19.00;;
11486;SDS011;10510;47.942;9.442;2023-03-01T09:03:49;36.50;;;14.75;;
11486;SDS011;10510;47.942;9.442;2023-03-01T09:05:49;51.92;;;17.00;;
11486;SDS011;10510;47.942;9.442;2023-03-01T09:07:50;46.03;;;15.88;;
11486;SDS011;10510;47.942;9.442;2023-03-01T09:09:50;33.75;;;15.52;;
11486;SDS011;10510;47.942;9.442;2023-03-01T09:11:53;42.00;;;16.00;;
11486;SDS011;10510;47.942;9.442;2023-03-01T09:13:53;37.00;;;16.00;;
11486;SDS011;10510;47.942;9.442;2023-03-01T09:15:54;59.55;;;18.70;;
11486;SDS011;10510;47.942;9.442;2023-03-01T09:17:54;34.38;;;15.38;;
11486;SDS011;10510;47.942;9.442;2023-03-01T09:19:54;37.15;;;16.67;;
11486;SDS011;10510;47.942;9.442;2023-03-01T09:21:54;36.22;;;16.35;;
11486;SDS011;10510;47.942;9.442;2023-03-01T09:23:56;37.55;;;15.63;;
11486;SDS011;10510;47.942;9.442;2023-03-01T09:25:57;38.47;;;16.40;;
11486;SDS011;10510;47.942;9.442;2023-03-01T09:27:57;36.95;;;15.02;;
11486;SDS011;10510;47.942;9.442;2023-03-01T09:29:58;37.70;;;15.63;;
11486;SDS011;10510;47.942;9.442;2023-03-01T09:31:58;44.88;;;15.68;;
11486;SDS011;10510;47.942;9.442;2023-03-01T09:33:58;38.38;;;15.57;;
11486;SDS011;10510;47.942;9.442;2023-03-01T09:37:59;33.88;;;18.25;;
11486;SDS011;10510;47.942;9.442;2023-03-01T09:40:00;31.38;;;15.98;;
11486;SDS011;10510;47.942;9.442;2023-03-01T09:42:01;42.80;;;15.45;;
11486;SDS011;10510;47.942;9.442;2023-03-01T09:44:08;31.13;;;14.57;;
11486;SDS011;10510;47.942;9.442;2023-03-01T09:46:29;34.78;;;15.85;;
11486;SDS011;10510;47.942;9.442;2023-03-01T09:48:44;37.33;;;17.40;;
11486;SDS011;10510;47.942;9.442;2023-03-01T09:50:50;34.95;;;16.10;;
11486;SDS011;10510;47.942;9.442;2023-03-01T09:55:11;38.83;;;15.63;;
11486;SDS011;10510;47.942;9.442;2023-03-01T10:04:44;42.50;;;16.42;;
11486;SDS011;10510;47.942;9.442;2023-03-01T10:06:52;37.35;;;15.07;;
11486;SDS011;10510;47.942;9.442;2023-03-01T10:09:15;36.33;;;16.30;;
11486;SDS011;10510;47.942;9.442;2023-03-01T10:11:21;34.17;;;16.63;;
11486;SDS011;10510;47.942;9.442;2023-03-01T10:13:29;31.52;;;15.13;;
11486;SDS011;10510;47.942;9.442;2023-03-01T10:15:43;34.30;;;14.63;;
11486;SDS011;10510;47.942;9.442;2023-03-01T10:18:04;38.55;;;14.65;;
11486;SDS011;10510;47.942;9.442;2023-03-01T10:20:18;34.40;;;16.08;;
11486;SDS011;10510;47.942;9.442;2023-03-01T10:22:27;40.78;;;16.70;;
11486;SDS011;10510;47.942;9.442;2023-03-01T10:24:28;29.38;;;13.93;;
11486;SDS011;10510;47.942;9.442;2023-03-01T10:26:55;31.50;;;14.27;;
11486;SDS011;10510;47.942;9.442;2023-03-01T10:29:07;34.00;;;15.90;;
11486;SDS011;10510;47.942;9.442;2023-03-01T10:31:12;31.77;;;15.23;;
11486;SDS011;10510;47.942;9.442;2023-03-01T10:33:19;34.67;;;14.93;;
11486;SDS011;10510;47.942;9.442;2023-03-01T10:35:23;34.50;;;14.80;;
11486;SDS011;10510;47.942;9.442;2023-03-01T10:37:25;34.42;;;15.32;;
11486;SDS011;10510;47.942;9.442;2023-03-01T10:39:27;32.65;;;15.18;;
11486;SDS011;10510;47.942;9.442;2023-03-01T10:41:27;34.55;;;15.93;;
11486;SDS011;10510;47.942;9.442;2023-03-01T10:43:32;32.20;;;16.20;;
11486;SDS011;10510;47.942;9.442;2023-03-01T10:45:44;33.30;;;14.38;;
11486;SDS011;10510;47.942;9.442;2023-03-01T10:47:44;38.45;;;16.88;;
11486;SDS011;10510;47.942;9.442;2023-03-01T10:49:52;32.58;;;14.88;;
11486;SDS011;10510;47.942;9.442;2023-03-01T10:51:53;36.53;;;15.63;;
11486;SDS011;10510;47.942;9.442;2023-03-01T10:53:53;34.05;;;15.25;;
11486;SDS011;10510;47.942;9.442;2023-03-01T10:56:15;29.40;;;14.93;;
11486;SDS011;10510;47.942;9.442;2023-03-01T10:58:17;39.60;;;14.10;;
11486;SDS011;10510;47.942;9.442;2023-03-01T11:00:23;35.95;;;14.75;;
11486;SDS011;10510;47.942;9.442;2023-03-01T11:02:28;35.78;;;15.10;;
11486;SDS011;10510;47.942;9.442;2023-03-01T11:04:30;31.90;;;15.10;;
11486;SDS011;10510;47.942;9.442;2023-03-01T11:06:31;31.48;;;14.38;;
11486;SDS011;10510;47.942;9.442;2023-03-01T11:08:36;31.98;;;14.20;;
11486;SDS011;10510;47.942;9.442;2023-03-01T11:10:38;34.35;;;16.25;;
11486;SDS011;10510;47.942;9.442;2023-03-01T11:12:38;36.92;;;16.63;;
11486;SDS011;10510;47.942;9.442;2023-03-01T11:14:39;39.85;;;16.13;;
11486;SDS011;10510;47.942;9.442;2023-03-01T11:17:03;37.58;;;17.50;;
11486;SDS011;10510;47.942;9.442;2023-03-01T11:21:09;35.00;;;15.45;;
11486;SDS011;10510;47.942;9.442;2023-03-01T11:23:10;43.67;;;17.63;;
11486;SDS011;10510;47.942;9.442;2023-03-01T11:25:13;44.60;;;18.02;;
11486;SDS011;10510;47.942;9.442;2023-03-01T11:27:35;41.92;;;16.50;;
11486;SDS011;10510;47.942;9.442;2023-03-01T11:29:41;34.20;;;16.02;;
11486;SDS011;10510;47.942;9.442;2023-03-01T11:31:46;33.88;;;15.40;;
11486;SDS011;10510;47.942;9.442;2023-03-01T11:34:09;34.63;;;16.67;;
11486;SDS011;10510;47.942;9.442;2023-03-01T11:36:31;44.25;;;16.75;;
11486;SDS011;10510;47.942;9.442;2023-03-01T11:38:40;34.35;;;15.80;;
11486;SDS011;10510;47.942;9.442;2023-03-01T11:40:44;48.05;;;19.27;;
11486;SDS011;10510;47.942;9.442;2023-03-01T11:45:22;37.33;;;15.75;;
11486;SDS011;10510;47.942;9.442;2023-03-01T11:50:05;37.28;;;16.33;;
11486;SDS011;10510;47.942;9.442;2023-03-01T12:01:56;36.03;;;15.10;;
11486;SDS011;10510;47.942;9.442;2023-03-01T12:08:24;34.00;;;15.52;;
11486;SDS011;10510;47.942;9.442;2023-03-01T12:12:49;35.80;;;15.57;;
11486;SDS011;10510;47.942;9.442;2023-03-01T12:17:44;37.97;;;16.40;;
11486;SDS011;10510;47.942;9.442;2023-03-01T12:20:24;36.60;;;17.02;;
11486;SDS011;10510;47.942;9.442;2023-03-01T12:37:37;34.83;;;15.52;;
11486;SDS011;10510;47.942;9.442;2023-03-01T12:42:01;32.28;;;14.70;;
11486;SDS011;10510;47.942;9.442;2023-03-01T12:46:33;40.88;;;14.27;;
11486;SDS011;10510;47.942;9.442;2023-03-01T12:48:50;40.20;;;14.55;;
11486;SDS011;10510;47.942;9.442;2023-03-01T12:51:06;33.95;;;15.65;;
11486;SDS011;10510;47.942;9.442;2023-03-01T12:53:18;31.23;;;14.43;;
11486;SDS011;10510;47.942;9.442;2023-03-01T12:57:31;35.13;;;15.43;;
11486;SDS011;10510;47.942;9.442;2023-03-01T13:06:18;33.10;;;15.43;;
11486;SDS011;10510;47.942;9.442;2023-03-01T13:08:33;29.70;;;14.90;;
11486;SDS011;10510;47.942;9.442;2023-03-01T13:14:55;29.33;;;14.32;;
11486;SDS011;10510;47.942;9.442;2023-03-01T13:16:55;26.38;;;13.20;;